Time;durP1;ratioP1;P1;durP2;ratioP2;P2;SDS_P1;SDS_P2;PMS_P1;PMS_P2;Temp;Humidity;BMP_temperature;BMP_pressure;BME280_temperature;BME280_humidity;BME280_pressure;Samples;Min_cycle;Max_cycle;Signal;HPM_P1;HPM_P2
2023/03/15 04:57:55;;;;;;;2.20;2.10;;;-1.80;99.90;;;;;;4955659;28;20469;-77
2023/03/15 05:00:22;;;;;;;1.83;1.73;;;-1.90;99.90;;;;;;4956788;29;20250;-78
2023/03/15 05:02:53;;;;;;;1.75;1.75;;;-1.90;99.90;;;;;;4956279;29;20694;-77
2023/03/15 05:05:21;;;;;;;2.30;2.10;;;-1.90;99.90;;;;;;4956080;29;20623;-77
2023/03/15 05:07:48;;;;;;;2.28;1.60;;;-2.00;99.90;;;;;;4956205;29;20246;-78
2023/03/15 05:10:15;;;;;;;1.90;1.90;;;-1.90;99.90;;;;;;4957292;29;20212;-77
2023/03/15 05:12:41;;;;;;;2.03;1.92;;;-2.00;99.90;;;;;;4957524;29;20601;-76
2023/03/15 05:15:11;;;;;;;2.00;1.90;;;-2.00;99.90;;;;;;4957118;28;20611;-77
2023/03/15 05:17:37;;;;;;;2.05;1.95;;;-2.00;99.90;;;;;;4955852;29;20258;-76
2023/03/15 05:20:09;;;;;;;2.33;2.20;;;-2.00;99.90;;;;;;4955950;29;20204;-77
2023/03/15 05:22:36;;;;;;;2.17;2.08;;;-2.00;99.90;;;;;;4956394;29;20192;-76
2023/03/15 05:25:03;;;;;;;1.80;1.70;;;-2.10;99.90;;;;;;4955879;29;20548;-76
2023/03/15 05:27:31;;;;;;;1.90;1.80;;;-2.10;99.90;;;;;;4955948;29;20738;-77
2023/03/15 05:29:58;;;;;;;2.47;1.60;;;-2.10;99.90;;;;;;4956745;29;20212;-77
2023/03/15 05:32:26;;;;;;;1.65;1.65;;;-2.10;99.90;;;;;;4956080;29;20208;-76
2023/03/15 05:34:54;;;;;;;1.70;1.60;;;-2.10;99.90;;;;;;4956086;29;20573;-77
2023/03/15 05:37:21;;;;;;;1.73;1.63;;;-2.10;99.90;;;;;;4957156;29;20224;-78
2023/03/15 05:39:48;;;;;;;1.70;1.70;;;-2.10;99.90;;;;;;4958734;29;20204;-78
2023/03/15 05:42:20;;;;;;;1.30;1.30;;;-2.20;99.90;;;;;;4958164;29;20230;-78
2023/03/15 05:44:48;;;;;;;1.33;1.33;;;-2.20;99.90;;;;;;4958212;29;20239;-78
2023/03/15 05:47:15;;;;;;;1.30;1.30;;;-2.20;99.90;;;;;;4957629;29;20274;-77
2023/03/15 05:49:43;;;;;;;2.92;1.40;;;-2.20;99.90;;;;;;4957963;29;20200;-78
2023/03/15 05:52:10;;;;;;;1.88;1.50;;;-2.20;99.90;;;;;;4956599;29;20675;-78
2023/03/15 05:54:36;;;;;;;3.65;1.65;;;-2.10;99.90;;;;;;4959563;29;20207;-79
2023/03/15 05:57:03;;;;;;;1.40;1.40;;;-2.10;99.90;;;;;;4960875;29;20275;-78
2023/03/15 05:59:30;;;;;;;1.52;1.52;;;-2.10;99.90;;;;;;4958014;29;20695;-69
2023/03/15 06:01:57;;;;;;;1.55;1.50;;;-2.00;99.90;;;;;;4955692;29;20210;-80
2023/03/15 06:04:24;;;;;;;2.38;2.28;;;-1.80;99.90;;;;;;4967931;29;20215;-80
2023/03/15 06:06:52;;;;;;;2.33;2.22;;;-1.40;99.90;;;;;;4976834;29;20219;-79
2023/03/15 06:09:19;;;;;;;4.57;3.47;;;-1.00;99.90;;;;;;4974573;29;20219;-80
2023/03/15 06:11:46;;;;;;;3.70;2.78;;;-0.60;99.90;;;;;;4965937;29;20200;-80
2023/03/15 06:14:13;;;;;;;2.30;2.20;;;-0.20;99.90;;;;;;4964503;29;20660;-80
2023/03/15 06:16:40;;;;;;;2.28;2.10;;;0.20;99.90;;;;;;4974100;29;20224;-78
2023/03/15 06:19:06;;;;;;;2.25;2.15;;;0.60;99.90;;;;;;4979470;29;20200;-79
2023/03/15 06:21:33;;;;;;;3.70;1.85;;;1.10;99.90;;;;;;4978800;29;20207;-79
2023/03/15 06:24:01;;;;;;;2.55;1.73;;;1.60;99.90;;;;;;4976998;29;20252;-79
2023/03/15 06:26:28;;;;;;;1.67;1.42;;;2.20;99.90;;;;;;4980058;28;20230;-79
2023/03/15 06:28:54;;;;;;;1.52;1.42;;;2.90;99.90;;;;;;4967233;29;20200;-79
2023/03/15 06:31:21;;;;;;;1.50;1.40;;;3.60;99.90;;;;;;4966178;29;20239;-79
2023/03/15 06:33:48;;;;;;;1.92;1.40;;;4.20;99.90;;;;;;4964019;29;20652;-79
2023/03/15 06:36:15;;;;;;;1.60;1.50;;;4.90;99.90;;;;;;4963796;29;20220;-80
2023/03/15 06:38:41;;;;;;;2.80;1.17;;;5.30;99.90;;;;;;4963613;29;20204;-80
2023/03/15 06:41:11;;;;;;;1.23;1.05;;;5.80;99.90;;;;;;4966071;29;20204;-80
2023/03/15 06:43:38;;;;;;;3.65;1.30;;;6.40;99.90;;;;;;4965215;29;20204;-80
2023/03/15 06:46:04;;;;;;;1.85;0.90;;;6.70;99.90;;;;;;4964853;29;20255;-80
2023/03/15 06:48:31;;;;;;;4.88;3.83;;;7.10;99.90;;;;;;4964144;29;20204;-80
2023/03/15 06:50:58;;;;;;;8.93;5.80;;;7.60;99.90;;;;;;4963136;29;20208;-80
2023/03/15 06:53:25;;;;;;;6.63;5.32;;;8.10;99.90;;;;;;4966450;29;20204;-80
2023/03/15 06:55:51;;;;;;;4.70;3.75;;;8.50;99.90;;;;;;4982962;28;20231;-80
2023/03/15 06:58:19;;;;;;;3.92;3.35;;;8.90;99.90;;;;;;4983057;28;20204;-80
2023/03/15 07:00:47;;;;;;;2.40;2.05;;;9.50;99.90;;;;;;4983324;28;20169;-80
2023/03/15 07:03:14;;;;;;;3.22;1.60;;;9.90;99.90;;;;;;4982924;28;20180;-81
2023/03/15 07:05:41;;;;;;;2.35;1.85;;;10.20;91.60;;;;;;4982810;28;20187;-79
2023/03/15 07:08:07;;;;;;;1.80;1.70;;;10.50;88.80;;;;;;4982999;28;20179;-80
2023/03/15 07:10:35;;;;;;;17.60;7.72;;;10.70;75.20;;;;;;4983141;28;20172;-80
2023/03/15 07:13:03;;;;;;;11.15;7.13;;;11.00;76.20;;;;;;4982902;28;20235;-80
2023/03/15 07:15:31;;;;;;;4.78;3.70;;;11.30;75.80;;;;;;4982940;28;20254;-80
2023/03/15 07:17:58;;;;;;;3.80;2.90;;;;;;;;;;4979506;29;20194;-79
2023/03/15 07:20:24;;;;;;;2.65;2.45;;;11.70;77.50;;;;;;4975266;29;20203;-79
2023/03/15 07:22:51;;;;;;;20.52;13.95;;;12.70;74.70;;;;;;4974088;29;20212;-79
2023/03/15 07:25:22;;;;;;;13.60;8.82;;;12.70;72.10;;;;;;4974325;29;20593;-79
2023/03/15 07:27:51;;;;;;;4.43;3.55;;;;;;;;;;4973400;29;20254;-79
2023/03/15 07:30:19;;;;;;;2.85;1.95;;;;;;;;;;4973466;29;20208;-79
2023/03/15 07:32:47;;;;;;;2.75;1.60;;;;;;;;;;4974824;29;20211;-79
2023/03/15 07:35:15;;;;;;;2.03;1.85;;;;;;;;;;4974977;29;20218;-79
2023/03/15 07:37:45;;;;;;;1.20;1.10;;;;;;;;;;4972858;28;20254;-79
2023/03/15 07:40:15;;;;;;;2.20;1.00;;;;;;;;;;4975163;29;20203;-79
2023/03/15 07:42:45;;;;;;;2.10;0.90;;;;;;;;;;4974010;29;20271;-79
2023/03/15 07:45:24;;;;;;;2.55;1.10;;;;;;;;;;4973996;29;20256;-79
2023/03/15 07:47:58;;;;;;;0.85;0.60;;;;;;;;;;4974067;29;20219;-78
2023/03/15 07:50:36;;;;;;;1.67;0.75;;;;;;;;;;4975203;29;20188;-79
2023/03/15 07:53:10;;;;;;;1.05;0.70;;;;;;;;;;4974085;29;20192;-79
2023/03/15 07:55:37;;;;;;;1.17;0.68;;;;;;;;;;4973879;29;20204;-79
2023/03/15 07:58:04;;;;;;;1.05;0.77;;;;;;;;;;4974219;29;20206;-79
2023/03/15 08:00:34;;;;;;;1.55;0.77;;;17.50;58.70;;;;;;4973828;29;20231;-79
2023/03/15 08:03:06;;;;;;;1.88;1.10;;;17.70;55.50;;;;;;4973671;29;20210;-79
2023/03/15 08:05:33;;;;;;;1.95;0.80;;;;;;;;;;4973802;29;20194;-79
2023/03/15 08:08:00;;;;;;;1.02;0.70;;;17.70;57.70;;;;;;4972717;29;20223;-79
2023/03/15 08:10:29;;;;;;;0.50;0.50;;;18.70;53.30;;;;;;4973077;29;20199;-79
2023/03/15 08:12:57;;;;;;;0.60;0.60;;;;;;;;;;4973338;29;20219;-79
2023/03/15 08:15:24;;;;;;;1.90;1.00;;;;;;;;;;4972308;29;20200;-79
2023/03/15 08:17:51;;;;;;;1.30;0.65;;;;;;;;;;4961993;29;20200;-79
2023/03/15 08:20:19;;;;;;;3.63;0.75;;;;;;;;;;4960821;29;20200;-80
2023/03/15 08:22:47;;;;;;;0.43;0.40;;;;;;;;;;4960633;29;20203;-80
2023/03/15 08:25:15;;;;;;;0.88;0.73;;;;;;;;;;4960168;29;20208;-80
2023/03/15 08:27:43;;;;;;;1.67;0.88;;;13.50;60.20;;;;;;4959994;29;20717;-80
2023/03/15 08:30:16;;;;;;;0.95;0.95;;;;;;;;;;4960032;29;20208;-80
2023/03/15 08:32:44;;;;;;;1.48;0.70;;;11.90;65.70;;;;;;4960331;29;20196;-80
2023/03/15 08:35:12;;;;;;;0.75;0.70;;;11.20;65.90;;;;;;4959803;29;20210;-79
2023/03/15 08:37:40;;;;;;;2.03;0.70;;;10.30;67.70;;;;;;4959534;29;20707;-79
2023/03/15 08:40:09;;;;;;;1.35;0.80;;;9.90;70.90;;;;;;4960086;29;20205;-79
2023/03/15 08:42:36;;;;;;;0.93;0.70;;;9.70;71.80;;;;;;4959801;29;20203;-79
2023/03/15 08:45:03;;;;;;;0.85;0.82;;;9.50;73.80;;;;;;4959570;29;20208;-80
2023/03/15 08:47:30;;;;;;;0.85;0.85;;;9.20;76.00;;;;;;4959609;29;20224;-80
2023/03/15 08:49:57;;;;;;;2.10;1.00;;;8.70;75.40;;;;;;4959651;28;20204;-80
2023/03/15 08:52:24;;;;;;;0.60;0.60;;;8.00;68.30;;;;;;4960059;29;20210;-80
2023/03/15 08:54:52;;;;;;;1.00;0.90;;;;;;;;;;4959838;29;20204;-80
2023/03/15 08:57:19;;;;;;;0.93;0.93;;;7.30;91.60;;;;;;4959430;29;20216;-79
2023/03/15 08:59:45;;;;;;;0.90;0.90;;;6.70;98.80;;;;;;4959111;29;20208;-79
2023/03/15 09:02:12;;;;;;;2.65;1.02;;;6.60;99.90;;;;;;4958996;29;20209;-79
2023/03/15 09:04:39;;;;;;;0.85;0.77;;;6.40;99.90;;;;;;4959655;29;20215;-79
2023/03/15 09:07:06;;;;;;;1.92;1.27;;;;;;;;;;4959139;29;20592;-79
2023/03/15 09:09:33;;;;;;;1.20;0.80;;;;;;;;;;4959363;29;20603;-80
2023/03/15 09:12:01;;;;;;;3.00;1.00;;;6.00;99.90;;;;;;4959602;29;20211;-80
2023/03/15 09:14:28;;;;;;;0.70;0.70;;;5.80;99.90;;;;;;4959532;29;20588;-80
2023/03/15 09:16:55;;;;;;;1.10;1.10;;;5.90;99.90;;;;;;4959317;29;20224;-80
2023/03/15 09:19:22;;;;;;;3.20;1.05;;;5.80;99.90;;;;;;4959860;29;20206;-79
2023/03/15 09:21:50;;;;;;;2.05;1.08;;;5.60;99.90;;;;;;4958536;29;20204;-79
2023/03/15 09:24:18;;;;;;;1.33;1.00;;;;;;;;;;4958095;29;20231;-78
2023/03/15 09:26:45;;;;;;;2.00;0.95;;;;;;;;;;4958299;29;20715;-78
2023/03/15 09:29:24;;;;;;;0.90;0.90;;;;;;;;;;4958040;29;20224;-78
2023/03/15 09:31:55;;;;;;;0.90;0.90;;;;;;;;;;4958141;29;20191;-78
2023/03/15 09:34:23;;;;;;;0.80;0.80;;;;;;;;;;4958372;29;20272;-78
2023/03/15 09:36:52;;;;;;;1.23;1.13;;;;;;;;;;4957843;29;20228;-78
2023/03/15 09:39:20;;;;;;;1.38;0.88;;;5.20;99.90;;;;;;4957593;29;20207;-78
2023/03/15 09:41:50;;;;;;;1.05;0.70;;;5.30;99.90;;;;;;4958705;29;20200;-78
2023/03/15 09:44:34;;;;;;;0.63;0.63;;;5.30;99.90;;;;;;4966157;29;20275;-78
2023/03/15 09:47:12;;;;;;;1.50;0.80;;;5.30;99.90;;;;;;4965249;29;20219;-78
2023/03/15 09:49:45;;;;;;;0.60;0.60;;;5.30;99.90;;;;;;4958577;29;20215;-78
2023/03/15 09:52:24;;;;;;;0.60;0.60;;;5.30;99.90;;;;;;4957564;29;20207;-78
2023/03/15 09:54:56;;;;;;;0.88;0.88;;;5.30;99.70;;;;;;4958022;29;20191;-78
2023/03/15 09:57:30;;;;;;;0.90;0.90;;;5.20;99.30;;;;;;4957832;29;20232;-78
2023/03/15 10:00:00;;;;;;;0.88;0.88;;;5.20;99.40;;;;;;4957314;28;20239;-78
2023/03/15 10:02:29;;;;;;;0.70;0.70;;;5.20;99.90;;;;;;4959570;29;20199;-77
2023/03/15 10:05:01;;;;;;;1.55;0.88;;;5.20;99.50;;;;;;4959746;29;20204;-77
2023/03/15 10:07:27;;;;;;;1.10;0.75;;;5.20;94.30;;;;;;4959106;29;20602;-77
2023/03/15 10:09:57;;;;;;;0.82;0.82;;;5.30;95.60;;;;;;4959405;29;20203;-77
2023/03/15 10:12:30;;;;;;;0.70;0.70;;;5.40;98.90;;;;;;4959417;29;20278;-77
2023/03/15 10:15:23;;;;;;;0.80;0.80;;;5.40;94.70;;;;;;4959133;29;20188;-77
2023/03/15 10:18:06;;;;;;;0.90;0.90;;;5.40;95.10;;;;;;4959541;29;20199;-77
2023/03/15 10:20:38;;;;;;;1.17;0.98;;;5.40;97.80;;;;;;4959420;29;20192;-77
2023/03/15 10:23:14;;;;;;;0.93;0.93;;;5.60;99.90;;;;;;4959240;29;20189;-77
2023/03/15 10:25:41;;;;;;;2.08;0.98;;;5.70;98.70;;;;;;4959388;29;20188;-78
2023/03/15 10:28:12;;;;;;;1.00;1.00;;;5.60;94.20;;;;;;4959170;29;20220;-78
2023/03/15 10:30:48;;;;;;;1.38;0.90;;;5.70;96.50;;;;;;4958860;29;20577;-77
2023/03/15 10:33:23;;;;;;;2.03;0.90;;;5.70;99.90;;;;;;4959575;29;20194;-77
2023/03/15 10:35:50;;;;;;;1.50;0.95;;;5.80;97.40;;;;;;4958789;29;20733;-78
2023/03/15 10:38:19;;;;;;;0.77;0.77;;;5.80;95.20;;;;;;4962282;29;20219;-77
2023/03/15 10:40:48;;;;;;;1.67;0.90;;;5.90;91.70;;;;;;4974236;29;20611;-76
2023/03/15 10:43:21;;;;;;;1.15;0.98;;;5.80;89.10;;;;;;4974085;29;20208;-77
2023/03/15 10:45:59;;;;;;;0.70;0.70;;;5.80;86.90;;;;;;4973203;29;20235;-77
2023/03/15 10:48:26;;;;;;;1.13;1.02;;;5.80;82.50;;;;;;4962550;29;20212;-77
2023/03/15 10:50:55;;;;;;;2.05;0.90;;;5.70;77.90;;;;;;4959352;29;20259;-77
2023/03/15 10:53:24;;;;;;;1.20;0.70;;;5.80;81.20;;;;;;4958926;29;20226;-77
2023/03/15 10:55:59;;;;;;;0.80;0.80;;;5.80;79.20;;;;;;4959275;29;20751;-79
2023/03/15 10:58:29;;;;;;;1.85;0.80;;;5.80;77.10;;;;;;4962976;29;20215;-78
2023/03/15 11:01:02;;;;;;;0.60;0.60;;;5.90;75.50;;;;;;4962126;29;20192;-79
2023/03/15 11:03:30;;;;;;;0.80;0.80;;;6.00;76.20;;;;;;4959753;29;20283;-77
2023/03/15 11:05:58;;;;;;;0.93;0.68;;;6.00;76.00;;;;;;4960327;29;20236;-78
2023/03/15 11:08:37;;;;;;;2.30;0.90;;;6.10;76.60;;;;;;4965506;29;20224;-78
2023/03/15 11:11:04;;;;;;;0.60;0.60;;;6.10;75.90;;;;;;5016147;23;20226;-74
2023/03/15 11:13:32;;;;;;;1.75;0.70;;;6.20;75.90;;;;;;4996109;28;20218;-73
2023/03/15 11:16:05;;;;;;;0.52;0.52;;;6.30;76.30;;;;;;4997466;28;20202;-73
2023/03/15 11:18:37;;;;;;;0.68;0.68;;;6.30;72.70;;;;;;4996656;28;20183;-72
2023/03/15 11:21:08;;;;;;;0.63;0.63;;;6.30;69.10;;;;;;4996554;28;20234;-73
2023/03/15 11:23:38;;;;;;;1.30;0.98;;;6.30;71.70;;;;;;4997009;28;20195;-73
2023/03/15 11:26:06;;;;;;;0.70;0.70;;;6.40;71.80;;;;;;4996643;28;20209;-73
2023/03/15 11:28:36;;;;;;;0.98;0.70;;;6.40;68.10;;;;;;4996549;28;20222;-73
2023/03/15 11:31:05;;;;;;;2.25;0.70;;;6.40;69.20;;;;;;4996770;28;20273;-74
2023/03/15 11:33:43;;;;;;;0.50;0.50;;;6.40;65.30;;;;;;4996587;28;20210;-73
2023/03/15 11:36:15;;;;;;;0.80;0.68;;;6.30;66.30;;;;;;4996418;28;20221;-74
2023/03/15 11:38:44;;;;;;;0.70;0.70;;;6.20;65.20;;;;;;4996165;28;20187;-74
2023/03/15 11:41:29;;;;;;;3.50;0.90;;;6.20;68.40;;;;;;4996300;28;20219;-73
2023/03/15 11:44:03;;;;;;;1.38;0.75;;;6.20;68.30;;;;;;4996357;28;20190;-75
2023/03/15 11:46:36;;;;;;;1.15;0.70;;;6.30;69.80;;;;;;4996337;28;20194;-75
2023/03/15 11:49:10;;;;;;;2.38;0.60;;;6.40;69.50;;;;;;4996044;28;20233;-72
2023/03/15 11:51:37;;;;;;;0.90;0.90;;;6.50;68.60;;;;;;4996184;28;20202;-72
2023/03/15 11:54:14;;;;;;;1.83;0.80;;;6.60;70.20;;;;;;4995694;28;20666;-72
2023/03/15 11:56:51;;;;;;;3.30;0.77;;;6.70;68.30;;;;;;4995701;28;20654;-72
2023/03/15 11:59:20;;;;;;;0.68;0.68;;;6.80;70.00;;;;;;4996024;28;20214;-72
2023/03/15 12:01:50;;;;;;;0.73;0.70;;;6.80;68.80;;;;;;4995879;28;20197;-73
2023/03/15 12:04:36;;;;;;;0.55;0.55;;;6.90;70.40;;;;;;4995469;28;20194;-73
2023/03/15 12:07:05;;;;;;;0.82;0.70;;;6.80;68.20;;;;;;4995699;28;20211;-72
2023/03/15 12:09:45;;;;;;;2.28;0.63;;;6.80;64.30;;;;;;4995217;28;20693;-72
2023/03/15 12:12:45;;;;;;;1.10;0.60;;;6.70;63.20;;;;;;4995947;28;20190;-72
2023/03/15 12:15:47;;;;;;;0.68;0.60;;;6.60;60.80;;;;;;4995889;28;20183;-72
2023/03/15 12:18:18;;;;;;;1.95;1.08;;;6.40;62.00;;;;;;4995417;28;20199;-72
2023/03/15 12:20:51;;;;;;;2.50;0.60;;;6.40;64.00;;;;;;4995357;28;20602;-73
2023/03/15 12:23:30;;;;;;;1.13;1.05;;;6.40;65.20;;;;;;4994947;28;20606;-72
2023/03/15 12:25:58;;;;;;;3.45;0.77;;;6.50;64.50;;;;;;4995609;28;20190;-73
2023/03/15 12:28:30;;;;;;;0.40;0.40;;;6.50;64.10;;;;;;4995230;28;20210;-72
2023/03/15 12:31:00;;;;;;;3.22;0.70;;;6.50;62.80;;;;;;4995305;28;20231;-72
2023/03/15 12:33:30;;;;;;;0.55;0.55;;;6.40;61.40;;;;;;4995357;28;20230;-72
2023/03/15 12:36:00;;;;;;;0.60;0.60;;;6.40;61.30;;;;;;4995190;28;20225;-73
2023/03/15 12:38:35;;;;;;;0.52;0.50;;;6.30;62.70;;;;;;4995058;28;20207;-73
2023/03/15 12:41:07;;;;;;;1.55;0.50;;;6.30;62.60;;;;;;4994987;28;20268;-73
2023/03/15 12:43:40;;;;;;;0.77;0.50;;;6.30;62.60;;;;;;4995551;28;20182;-72
2023/03/15 12:46:06;;;;;;;0.60;0.60;;;6.30;63.40;;;;;;4996004;28;20253;-72
2023/03/15 12:48:34;;;;;;;0.50;0.50;;;6.40;64.60;;;;;;4995107;28;20198;-72
2023/03/15 12:51:13;;;;;;;3.00;0.50;;;6.60;63.90;;;;;;4995318;28;20223;-74
2023/03/15 12:53:48;;;;;;;0.63;0.63;;;6.60;62.50;;;;;;4995152;28;20669;-73
2023/03/15 12:56:35;;;;;;;0.60;0.60;;;6.60;62.20;;;;;;4994954;28;20550;-73
2023/03/15 12:59:15;;;;;;;0.50;0.50;;;6.60;61.40;;;;;;4995153;28;20202;-72
2023/03/15 13:01:42;;;;;;;0.70;0.70;;;6.60;64.80;;;;;;4995254;28;20645;-72
2023/03/15 13:04:12;;;;;;;4.38;0.75;;;6.70;64.10;;;;;;4994996;28;20207;-73
2023/03/15 13:06:52;;;;;;;2.45;0.70;;;6.80;64.90;;;;;;5001078;28;20182;-73
2023/03/15 13:09:40;;;;;;;1.02;0.90;;;7.00;64.40;;;;;;4994483;28;20234;-74
2023/03/15 13:12:14;;;;;;;2.05;0.88;;;7.10;63.20;;;;;;4994650;28;20206;-75
2023/03/15 13:14:46;;;;;;;0.60;0.60;;;7.10;62.80;;;;;;4995111;28;20183;-75
2023/03/15 13:17:25;;;;;;;3.83;0.50;;;7.00;62.70;;;;;;4994868;28;20194;-74
2023/03/15 13:20:12;;;;;;;0.50;0.50;;;6.80;59.70;;;;;;4994622;28;20218;-75
2023/03/15 13:22:49;;;;;;;2.55;0.60;;;6.70;61.50;;;;;;4994416;28;20191;-74
2023/03/15 13:25:21;;;;;;;0.60;0.60;;;6.70;61.80;;;;;;4994369;28;20594;-74
2023/03/15 13:27:54;;;;;;;0.45;0.45;;;6.80;60.50;;;;;;4995447;28;20201;-74
2023/03/15 13:30:37;;;;;;;0.45;0.45;;;6.90;62.20;;;;;;4995818;28;20234;-74
2023/03/15 13:33:18;;;;;;;0.60;0.60;;;7.00;61.10;;;;;;4996507;28;20190;-75
2023/03/15 13:35:53;;;;;;;0.75;0.55;;;7.10;59.70;;;;;;4995676;28;20194;-74
2023/03/15 13:38:29;;;;;;;0.55;0.40;;;7.10;58.60;;;;;;4996305;28;20194;-74
2023/03/15 13:40:58;;;;;;;0.70;0.70;;;7.20;58.00;;;;;;4996023;28;20233;-74
2023/03/15 13:43:27;;;;;;;0.50;0.50;;;7.20;57.40;;;;;;4995752;28;20288;-74
2023/03/15 13:45:57;;;;;;;0.50;0.50;;;7.20;57.20;;;;;;4994159;28;20209;-74
2023/03/15 13:48:26;;;;;;;3.20;0.50;;;7.30;57.50;;;;;;4994281;28;20209;-74
2023/03/15 13:50:56;;;;;;;1.23;0.50;;;7.40;56.20;;;;;;4993839;28;20230;-75
2023/03/15 13:53:25;;;;;;;0.40;0.40;;;7.40;56.00;;;;;;4994501;28;20281;-75
2023/03/15 13:55:54;;;;;;;0.55;0.55;;;7.40;56.40;;;;;;4993992;28;20202;-73
2023/03/15 13:58:23;;;;;;;0.50;0.50;;;7.40;57.00;;;;;;4993975;28;20203;-73
2023/03/15 14:00:57;;;;;;;1.48;0.50;;;7.30;57.00;;;;;;4994785;28;20223;-73
2023/03/15 14:03:25;;;;;;;0.40;0.40;;;7.30;57.10;;;;;;4993794;28;20668;-73
2023/03/15 14:05:55;;;;;;;0.60;0.60;;;7.20;57.10;;;;;;4993987;28;20202;-73
2023/03/15 14:08:26;;;;;;;2.50;0.60;;;7.10;56.40;;;;;;4995897;28;20198;-73
2023/03/15 14:11:01;;;;;;;0.52;0.50;;;7.00;57.30;;;;;;4995865;28;20226;-73
2023/03/15 14:13:30;;;;;;;0.50;0.50;;;7.00;57.80;;;;;;4994047;28;20210;-73
2023/03/15 14:16:01;;;;;;;0.50;0.40;;;7.10;58.50;;;;;;4993862;28;20210;-73
2023/03/15 14:18:34;;;;;;;0.50;0.50;;;7.00;57.20;;;;;;4994605;28;20245;-73
2023/03/15 14:21:06;;;;;;;1.77;0.50;;;7.10;57.90;;;;;;4995318;28;20223;-73
2023/03/15 14:23:38;;;;;;;0.60;0.60;;;7.10;57.30;;;;;;4996932;28;20221;-75
2023/03/15 14:26:17;;;;;;;0.47;0.47;;;7.10;58.10;;;;;;4996866;28;20191;-73
2023/03/15 14:28:57;;;;;;;1.13;0.80;;;7.00;58.50;;;;;;4995981;28;20206;-73
2023/03/15 14:31:27;;;;;;;2.63;1.05;;;7.00;58.50;;;;;;4997635;28;20205;-73
2023/03/15 14:33:59;;;;;;;0.63;0.60;;;7.00;58.70;;;;;;4998000;28;20203;-73
2023/03/15 14:36:34;;;;;;;0.55;0.55;;;7.00;58.30;;;;;;4996469;28;20628;-73
2023/03/15 14:39:01;;;;;;;0.50;0.50;;;7.00;58.40;;;;;;4995881;28;20667;-73
2023/03/15 14:41:32;;;;;;;0.57;0.57;;;7.00;58.70;;;;;;4996172;28;20230;-73
2023/03/15 14:44:01;;;;;;;0.70;0.70;;;7.10;58.10;;;;;;4997041;28;20253;-75
2023/03/15 14:46:29;;;;;;;2.40;2.20;;;7.10;57.90;;;;;;4995362;28;20206;-75
2023/03/15 14:48:56;;;;;;;0.85;0.85;;;7.00;57.30;;;;;;4997234;28;20205;-75
2023/03/15 14:51:24;;;;;;;0.57;0.57;;;7.00;56.90;;;;;;4997116;28;20210;-75
2023/03/15 14:53:55;;;;;;;0.57;0.50;;;7.00;56.20;;;;;;4997195;28;20632;-75
2023/03/15 14:56:21;;;;;;;0.40;0.40;;;7.00;56.40;;;;;;4996776;28;20653;-76
2023/03/15 14:58:48;;;;;;;0.45;0.45;;;7.10;56.60;;;;;;4997073;28;20217;-75
2023/03/15 15:01:21;;;;;;;0.60;0.60;;;7.10;56.00;;;;;;4996703;28;20636;-75
2023/03/15 15:03:51;;;;;;;0.43;0.43;;;7.10;55.70;;;;;;4997171;28;20209;-75
2023/03/15 15:06:17;;;;;;;0.50;0.50;;;7.20;55.90;;;;;;4998542;28;20607;-75
2023/03/15 15:08:47;;;;;;;2.25;0.60;;;7.20;56.00;;;;;;5000028;28;20234;-76
2023/03/15 15:11:16;;;;;;;0.52;0.52;;;7.20;55.90;;;;;;4996259;28;20313;-76
2023/03/15 15:13:43;;;;;;;1.52;0.60;;;7.30;57.30;;;;;;4998742;28;20732;-76
2023/03/15 15:16:10;;;;;;;0.98;0.57;;;7.30;56.60;;;;;;4997238;28;20666;-75
2023/03/15 15:18:37;;;;;;;0.63;0.57;;;7.30;57.70;;;;;;4997446;28;20206;-75
2023/03/15 15:21:13;;;;;;;0.60;0.60;;;7.30;57.80;;;;;;4998377;28;20834;-75
2023/03/15 15:23:42;;;;;;;0.60;0.60;;;7.20;57.60;;;;;;4999007;28;20182;-76
2023/03/15 15:26:18;;;;;;;0.50;0.50;;;7.10;57.50;;;;;;4998438;28;20207;-76
2023/03/15 15:28:45;;;;;;;0.55;0.55;;;6.90;57.50;;;;;;4998355;28;20202;-75
2023/03/15 15:31:16;;;;;;;1.15;0.65;;;6.90;57.90;;;;;;4998784;28;20816;-76
2023/03/15 15:33:44;;;;;;;0.50;0.50;;;6.80;57.70;;;;;;4998299;28;20191;-76
2023/03/15 15:36:18;;;;;;;0.68;0.68;;;6.70;58.90;;;;;;5000242;28;20270;-76
2023/03/15 15:38:45;;;;;;;1.02;1.02;;;6.70;58.70;;;;;;5000086;28;20190;-76
2023/03/15 15:41:22;;;;;;;1.45;1.45;;;6.60;59.10;;;;;;5000354;28;20222;-76
2023/03/15 15:43:49;;;;;;;1.95;1.85;;;6.50;58.40;;;;;;4999552;28;20191;-76
2023/03/15 15:46:16;;;;;;;0.90;0.90;;;6.40;58.50;;;;;;4999126;28;20218;-76
2023/03/15 15:48:43;;;;;;;0.70;0.70;;;6.40;59.10;;;;;;4996232;28;20213;-76
2023/03/15 15:51:24;;;;;;;0.65;0.60;;;6.30;59.10;;;;;;4996262;28;20235;-77
2023/03/15 15:53:52;;;;;;;0.85;0.60;;;6.30;59.00;;;;;;4996102;28;20190;-76
2023/03/15 15:56:20;;;;;;;0.60;0.60;;;6.30;59.60;;;;;;4995660;28;20663;-76
2023/03/15 15:58:47;;;;;;;0.40;0.40;;;6.30;60.40;;;;;;4995269;28;20281;-76
2023/03/15 16:01:15;;;;;;;1.00;1.00;;;6.30;60.40;;;;;;4995745;28;20246;-76
2023/03/15 16:03:42;;;;;;;0.90;0.90;;;6.30;60.50;;;;;;4995428;28;20207;-76
2023/03/15 16:06:17;;;;;;;0.98;0.98;;;6.40;61.10;;;;;;4995680;28;20198;-76
2023/03/15 16:08:44;;;;;;;0.85;0.85;;;6.40;62.10;;;;;;4995516;28;20661;-77
2023/03/15 16:11:13;;;;;;;0.75;0.75;;;6.30;61.30;;;;;;4995891;28;20231;-77
2023/03/15 16:13:41;;;;;;;0.73;0.73;;;6.30;62.20;;;;;;4995582;28;20207;-76
2023/03/15 16:16:13;;;;;;;1.40;1.40;;;6.30;62.40;;;;;;4995500;28;20290;-77
2023/03/15 16:18:40;;;;;;;1.00;1.00;;;6.20;62.60;;;;;;4995621;28;20222;-78
2023/03/15 16:21:07;;;;;;;0.90;0.90;;;6.10;62.70;;;;;;4995412;28;20226;-76
2023/03/15 16:23:34;;;;;;;1.85;0.80;;;6.00;62.90;;;;;;4995447;28;20205;-76
2023/03/15 16:26:00;;;;;;;0.60;0.60;;;6.00;62.80;;;;;;4995514;28;20206;-76
2023/03/15 16:28:28;;;;;;;0.75;0.75;;;5.90;63.60;;;;;;4995321;28;20206;-75
2023/03/15 16:30:56;;;;;;;0.98;0.85;;;5.90;63.70;;;;;;4995191;28;20223;-75
2023/03/15 16:33:22;;;;;;;0.63;0.63;;;5.90;64.00;;;;;;4995264;28;20199;-76
2023/03/15 16:35:52;;;;;;;0.60;0.60;;;5.90;65.50;;;;;;4995012;28;20548;-75
2023/03/15 16:38:23;;;;;;;0.70;0.70;;;5.80;66.90;;;;;;4995379;28;20262;-76
2023/03/15 16:40:50;;;;;;;0.75;0.75;;;5.80;66.50;;;;;;4995453;28;20309;-75
2023/03/15 16:43:18;;;;;;;0.60;0.60;;;5.70;67.80;;;;;;4995308;28;20203;-75
2023/03/15 16:45:45;;;;;;;0.50;0.50;;;5.70;68.40;;;;;;4995195;28;20203;-76
2023/03/15 16:48:13;;;;;;;0.75;0.75;;;5.70;69.70;;;;;;4994911;28;20206;-76
2023/03/15 16:50:41;;;;;;;0.70;0.70;;;5.60;70.10;;;;;;4994563;28;20578;-75
2023/03/15 16:53:10;;;;;;;0.60;0.60;;;5.60;71.30;;;;;;4994885;28;20203;-75
2023/03/15 16:55:38;;;;;;;0.60;0.60;;;5.60;71.30;;;;;;4994983;28;20234;-75
2023/03/15 16:58:14;;;;;;;0.77;0.68;;;5.50;71.90;;;;;;4994894;28;20230;-76
2023/03/15 17:00:43;;;;;;;0.45;0.45;;;5.50;72.30;;;;;;4994964;28;20220;-76
2023/03/15 17:03:11;;;;;;;0.60;0.60;;;5.50;73.80;;;;;;4994889;28;20249;-76
2023/03/15 17:05:40;;;;;;;0.90;0.90;;;5.40;74.10;;;;;;4994731;28;20298;-76
2023/03/15 17:08:11;;;;;;;0.55;0.55;;;5.40;75.10;;;;;;4994391;28;20573;-75
2023/03/15 17:10:40;;;;;;;0.60;0.60;;;5.30;76.00;;;;;;4994147;28;20678;-75
2023/03/15 17:13:08;;;;;;;0.70;0.70;;;5.30;76.60;;;;;;4994793;28;20238;-75
2023/03/15 17:15:35;;;;;;;0.70;0.70;;;5.20;77.60;;;;;;4994673;28;20214;-76
2023/03/15 17:18:03;;;;;;;0.55;0.55;;;5.20;79.00;;;;;;4994601;28;20211;-77
2023/03/15 17:20:31;;;;;;;0.50;0.50;;;5.10;80.50;;;;;;4994844;28;20253;-76
2023/03/15 17:23:02;;;;;;;0.52;0.52;;;5.10;81.90;;;;;;4994588;28;20198;-77
2023/03/15 17:25:28;;;;;;;1.30;0.90;;;5.00;84.30;;;;;;4994553;28;20214;-77
2023/03/15 17:27:55;;;;;;;0.80;0.80;;;5.00;85.20;;;;;;4994210;28;20203;-77
2023/03/15 17:30:24;;;;;;;0.80;0.80;;;4.90;85.70;;;;;;4994574;28;20365;-76
2023/03/15 17:32:52;;;;;;;0.70;0.70;;;4.90;87.30;;;;;;4994352;28;20213;-77
2023/03/15 17:35:21;;;;;;;0.80;0.80;;;4.80;89.40;;;;;;4994261;28;20286;-76
2023/03/15 17:37:48;;;;;;;1.63;0.90;;;4.70;90.50;;;;;;4998097;28;20241;-78
2023/03/15 17:40:22;;;;;;;0.80;0.80;;;4.70;91.10;;;;;;4998710;28;20246;-78
2023/03/15 17:42:50;;;;;;;0.70;0.70;;;4.60;92.30;;;;;;4997489;28;20187;-78
2023/03/15 17:45:19;;;;;;;0.93;0.93;;;4.50;93.10;;;;;;4999926;28;20558;-78
2023/03/15 17:47:46;;;;;;;1.00;1.00;;;4.50;94.00;;;;;;4998222;28;20210;-79
2023/03/15 17:50:13;;;;;;;1.35;1.25;;;4.50;95.20;;;;;;4995649;28;20223;-78
2023/03/15 17:52:42;;;;;;;1.08;1.08;;;4.40;96.50;;;;;;4996079;28;20202;-78
2023/03/15 17:55:15;;;;;;;1.42;1.40;;;4.40;97.80;;;;;;4996057;28;20207;-77
2023/03/15 17:57:43;;;;;;;1.50;1.40;;;4.40;99.00;;;;;;4997870;28;20187;-78
2023/03/15 18:00:12;;;;;;;2.03;1.50;;;4.30;99.90;;;;;;4999635;28;20230;-77
2023/03/15 18:02:40;;;;;;;1.17;1.13;;;4.30;99.90;;;;;;4995136;28;20206;-78
2023/03/15 18:05:14;;;;;;;1.50;1.40;;;4.30;99.90;;;;;;4995654;28;20199;-77
2023/03/15 18:07:40;;;;;;;2.17;1.13;;;4.20;99.90;;;;;;4994148;28;20218;-77
2023/03/15 18:10:09;;;;;;;1.10;1.10;;;4.20;99.90;;;;;;4994597;28;20238;-77
2023/03/15 18:12:36;;;;;;;1.65;1.08;;;4.10;99.90;;;;;;4995388;28;20210;-76
2023/03/15 18:15:05;;;;;;;1.00;1.00;;;4.10;99.90;;;;;;4994045;28;20217;-76
2023/03/15 18:17:31;;;;;;;0.95;0.95;;;4.00;99.90;;;;;;4994027;28;20202;-77